Time;durP1;ratioP1;P1;durP2;ratioP2;P2;SDS_P1;SDS_P2;PMS_P1;PMS_P2;Temp;Humidity;BMP_temperature;BMP_pressure;BME280_temperature;BME280_humidity;BME280_pressure;Samples;Min_cycle;Max_cycle;Signal;HPM_P1;HPM_P2
2022/11/28 00:01:16;;;;;;;5.60;5.10;;;10.30;97.70;;;;;;5050819;28;20895;-67
2022/11/28 00:03:42;;;;;;;5.77;5.30;;;10.40;97.50;;;;;;5052069;28;20169;-68
2022/11/28 00:06:10;;;;;;;6.23;5.73;;;10.50;97.20;;;;;;5051562;28;20740;-68
2022/11/28 00:08:36;;;;;;;5.90;4.93;;;10.40;96.90;;;;;;5054818;28;20178;-68
2022/11/28 00:11:04;;;;;;;5.87;5.37;;;10.30;97.40;;;;;;5070290;28;20773;-68
2022/11/28 00:13:29;;;;;;;5.90;5.40;;;10.30;97.40;;;;;;5055442;28;20178;-67
2022/11/28 00:16:00;;;;;;;6.17;5.57;;;10.20;97.60;;;;;;5054792;28;20898;-68
2022/11/28 00:18:27;;;;;;;6.10;5.50;;;10.20;97.50;;;;;;5055540;28;20168;-67
2022/11/28 00:21:02;;;;;;;5.87;5.47;;;10.10;97.90;;;;;;5054590;28;20543;-68
2022/11/28 00:23:29;;;;;;;5.63;5.23;;;10.20;98.40;;;;;;5055309;28;20403;-67
2022/11/28 00:26:05;;;;;;;6.43;5.60;;;10.00;99.40;;;;;;5054617;28;20415;-68
2022/11/28 00:28:31;;;;;;;5.80;5.30;;;10.10;99.90;;;;;;5054061;28;20490;-68
2022/11/28 00:30:57;;;;;;;5.97;5.43;;;10.10;99.90;;;;;;5054139;28;20453;-68
2022/11/28 00:33:23;;;;;;;6.57;6.00;;;10.20;99.90;;;;;;5055138;28;20262;-68
2022/11/28 00:35:49;;;;;;;5.90;5.40;;;10.20;99.90;;;;;;5055094;28;20263;-67
2022/11/28 00:38:15;;;;;;;6.70;6.00;;;10.20;99.90;;;;;;5054832;28;20912;-67
2022/11/28 00:40:41;;;;;;;6.60;6.00;;;10.40;99.90;;;;;;5054926;28;20456;-68
2022/11/28 00:43:06;;;;;;;6.53;5.93;;;10.40;99.90;;;;;;5036608;28;20493;-68
2022/11/28 00:45:32;;;;;;;6.67;6.10;;;10.50;99.90;;;;;;5054866;28;20402;-68
2022/11/28 00:47:58;;;;;;;6.30;5.70;;;10.60;99.90;;;;;;5054514;28;20221;-68
2022/11/28 00:50:24;;;;;;;6.60;6.03;;;10.60;99.90;;;;;;5054826;28;20181;-68
2022/11/28 00:52:49;;;;;;;6.77;6.20;;;10.30;99.90;;;;;;5054739;28;20177;-68
2022/11/28 00:55:15;;;;;;;6.30;5.90;;;10.40;99.90;;;;;;5054417;28;20755;-68
2022/11/28 00:57:41;;;;;;;6.20;5.80;;;10.40;99.90;;;;;;5054827;28;20400;-68
2022/11/28 01:00:07;;;;;;;5.97;5.37;;;10.50;99.90;;;;;;5053726;28;20237;-68
2022/11/28 01:02:33;;;;;;;6.37;5.87;;;10.50;99.90;;;;;;5054581;28;20177;-68
2022/11/28 01:05:00;;;;;;;7.87;7.17;;;10.40;99.90;;;;;;5054172;28;20451;-68
2022/11/28 01:07:27;;;;;;;6.40;5.87;;;10.50;99.90;;;;;;5054547;28;20234;-68
2022/11/28 01:09:54;;;;;;;6.17;5.70;;;10.50;99.90;;;;;;5053765;28;20420;-69
2022/11/28 01:12:20;;;;;;;6.57;6.07;;;10.50;99.90;;;;;;5054331;28;20416;-68
2022/11/28 01:14:48;;;;;;;6.43;5.80;;;10.40;99.90;;;;;;5053138;28;20414;-68
2022/11/28 01:17:14;;;;;;;7.03;6.27;;;10.40;99.90;;;;;;5053371;28;20718;-68
2022/11/28 01:19:39;;;;;;;6.80;6.20;;;10.40;99.90;;;;;;5054116;28;20416;-68
2022/11/28 01:22:05;;;;;;;7.60;6.90;;;10.30;99.90;;;;;;5053569;28;20188;-68
2022/11/28 01:24:32;;;;;;;6.50;6.00;;;10.10;99.90;;;;;;5054116;28;20170;-69
2022/11/28 01:27:04;;;;;;;6.80;6.20;;;10.20;99.90;;;;;;5053482;28;20257;-69
2022/11/28 01:29:29;;;;;;;7.27;6.63;;;10.20;99.90;;;;;;5053912;28;20569;-68
2022/11/28 01:31:56;;;;;;;7.43;6.73;;;10.40;99.90;;;;;;5053456;28;20177;-69
2022/11/28 01:34:22;;;;;;;6.60;6.10;;;10.30;99.90;;;;;;5054334;28;20181;-68
2022/11/28 01:36:47;;;;;;;6.73;6.20;;;10.30;99.90;;;;;;5053898;28;20409;-68
2022/11/28 01:39:14;;;;;;;6.00;5.43;;;10.40;99.90;;;;;;5053559;28;20181;-69
2022/11/28 01:41:40;;;;;;;6.47;5.97;;;10.30;99.90;;;;;;5053740;28;20226;-68
2022/11/28 01:44:11;;;;;;;7.30;6.63;;;10.40;99.90;;;;;;5051894;28;20777;-68
2022/11/28 01:46:37;;;;;;;6.70;6.20;;;10.10;99.90;;;;;;5053775;28;20830;-68
2022/11/28 01:49:27;;;;;;;7.60;6.17;;;10.00;99.90;;;;;;5053065;28;20429;-69
2022/11/28 01:52:01;;;;;;;7.20;6.60;;;10.00;99.90;;;;;;5053502;28;20185;-68
2022/11/28 01:54:29;;;;;;;7.77;6.27;;;10.00;99.90;;;;;;5053854;28;20409;-68
2022/11/28 01:57:02;;;;;;;7.00;6.40;;;10.00;99.90;;;;;;5052877;28;20800;-69
2022/11/28 01:59:32;;;;;;;7.47;6.77;;;10.10;99.90;;;;;;5053237;28;20539;-68
2022/11/28 02:01:58;;;;;;;7.40;6.80;;;9.90;99.90;;;;;;5052897;28;20418;-68
2022/11/28 02:04:26;;;;;;;7.27;6.67;;;9.90;99.90;;;;;;5053384;28;20411;-68
2022/11/28 02:06:53;;;;;;;7.77;7.03;;;9.80;99.90;;;;;;5053335;28;20182;-68
2022/11/28 02:09:19;;;;;;;7.13;6.53;;;9.90;99.90;;;;;;5052295;28;20405;-69
2022/11/28 02:12:04;;;;;;;6.87;6.27;;;10.00;99.90;;;;;;5053276;28;20810;-68
2022/11/28 02:14:36;;;;;;;7.43;6.83;;;10.10;99.90;;;;;;5053260;28;20258;-68
2022/11/28 02:17:26;;;;;;;6.80;6.00;;;10.20;99.90;;;;;;5052445;28;20422;-68
2022/11/28 02:20:16;;;;;;;10.70;7.17;;;10.00;99.90;;;;;;5053310;28;20437;-68
2022/11/28 02:22:50;;;;;;;7.93;7.30;;;10.00;99.90;;;;;;5053138;28;20386;-68
2022/11/28 02:26:04;;;;;;;6.93;6.33;;;9.90;99.90;;;;;;5052445;28;20807;-68
2022/11/28 02:28:36;;;;;;;6.57;5.97;;;10.00;99.90;;;;;;5052394;28;20407;-68
2022/11/28 02:31:49;;;;;;;7.10;6.50;;;10.10;99.90;;;;;;5052049;28;20454;-69
2022/11/28 02:34:27;;;;;;;6.80;6.27;;;10.10;99.90;;;;;;5049870;28;20419;-68
2022/11/28 02:37:06;;;;;;;7.17;6.57;;;10.30;99.90;;;;;;5052839;28;20398;-68
2022/11/28 02:39:54;;;;;;;7.43;6.80;;;10.30;99.90;;;;;;5052737;28;20397;-68
2022/11/28 02:42:27;;;;;;;8.03;7.33;;;9.80;99.90;;;;;;5052450;28;20411;-68
2022/11/28 02:45:10;;;;;;;8.37;7.57;;;9.50;99.90;;;;;;5052759;28;20392;-68
2022/11/28 02:47:42;;;;;;;7.57;6.97;;;9.30;99.90;;;;;;5052755;28;20397;-68
2022/11/28 02:50:34;;;;;;;7.47;6.77;;;9.40;99.90;;;;;;5051861;28;20743;-69
2022/11/28 02:53:07;;;;;;;7.73;6.80;;;9.50;99.90;;;;;;5052043;28;20428;-68
2022/11/28 02:55:37;;;;;;;8.50;7.13;;;9.50;99.90;;;;;;5052934;28;20491;-68
2022/11/28 02:58:03;;;;;;;7.77;7.07;;;9.50;99.90;;;;;;5051987;28;20444;-69
2022/11/28 03:00:34;;;;;;;7.67;7.07;;;9.60;99.90;;;;;;5052368;28;20819;-68
2022/11/28 03:03:19;;;;;;;7.87;7.20;;;9.50;99.90;;;;;;5051917;28;20186;-69
2022/11/28 03:05:59;;;;;;;8.10;7.30;;;9.40;99.90;;;;;;5052522;28;20756;-68
2022/11/28 03:08:59;;;;;;;7.67;6.97;;;9.40;99.90;;;;;;5052398;28;20877;-68
2022/11/28 03:11:57;;;;;;;7.70;7.00;;;9.40;99.90;;;;;;5042271;28;20432;-68
2022/11/28 03:14:55;;;;;;;7.90;7.10;;;9.50;99.90;;;;;;5051934;28;20401;-69
2022/11/28 03:17:53;;;;;;;7.13;6.53;;;9.70;99.90;;;;;;5051819;28;20420;-69
2022/11/28 03:20:30;;;;;;;8.83;7.97;;;9.70;99.90;;;;;;5051703;28;20819;-68
2022/11/28 03:23:17;;;;;;;9.73;7.17;;;9.50;99.90;;;;;;5052322;28;20721;-68
2022/11/28 03:25:48;;;;;;;7.87;7.17;;;9.60;99.90;;;;;;5052290;28;20400;-68
2022/11/28 03:28:25;;;;;;;7.07;6.47;;;9.50;99.90;;;;;;5051997;28;20752;-68
2022/11/28 03:31:03;;;;;;;7.97;7.27;;;9.60;99.90;;;;;;5051974;28;20803;-68
2022/11/28 03:33:35;;;;;;;8.40;7.60;;;9.50;99.90;;;;;;5052337;28;20453;-68
2022/11/28 03:36:10;;;;;;;8.73;7.83;;;9.50;99.90;;;;;;5051581;28;20405;-69
2022/11/28 03:38:41;;;;;;;8.20;7.50;;;9.40;99.90;;;;;;5052163;28;20550;-68
2022/11/28 03:41:13;;;;;;;8.20;7.50;;;9.50;99.90;;;;;;5051550;28;20440;-68
2022/11/28 03:43:44;;;;;;;8.00;7.30;;;9.60;99.90;;;;;;5055265;28;20738;-68
2022/11/28 03:46:14;;;;;;;8.23;7.10;;;9.70;99.90;;;;;;5055461;28;20383;-68
2022/11/28 03:48:45;;;;;;;8.00;7.30;;;9.70;99.90;;;;;;5055959;28;20399;-68
2022/11/28 03:51:45;;;;;;;8.10;7.40;;;9.70;99.90;;;;;;5054213;28;20396;-69
2022/11/28 03:54:20;;;;;;;8.70;7.37;;;9.80;99.90;;;;;;5035586;28;20425;-68
2022/11/28 03:57:08;;;;;;;7.37;6.77;;;9.90;99.90;;;;;;5055974;28;20465;-68
2022/11/28 03:59:35;;;;;;;7.43;6.73;;;9.90;99.90;;;;;;5055396;28;20468;-69
2022/11/28 04:02:33;;;;;;;7.53;6.90;;;9.80;99.90;;;;;;5055684;28;20401;-68
2022/11/28 04:05:40;;;;;;;7.80;7.10;;;9.60;99.90;;;;;;5044060;28;20480;-68
2022/11/28 04:08:25;;;;;;;8.33;7.43;;;9.60;99.90;;;;;;5055067;28;20386;-69
2022/11/28 04:11:11;;;;;;;7.27;6.57;;;9.60;99.90;;;;;;5054505;28;20509;-68
2022/11/28 04:13:56;;;;;;;8.10;7.30;;;9.40;99.90;;;;;;5054411;28;20407;-68
2022/11/28 04:16:48;;;;;;;8.27;7.40;;;9.50;99.90;;;;;;5054570;28;20400;-69
2022/11/28 04:19:24;;;;;;;8.20;7.50;;;9.60;99.90;;;;;;5054793;28;20396;-68
2022/11/28 04:21:56;;;;;;;7.30;6.60;;;9.40;99.90;;;;;;5055355;28;20436;-68
2022/11/28 04:24:30;;;;;;;7.73;6.70;;;9.50;99.90;;;;;;5054370;28;20748;-68
2022/11/28 04:27:09;;;;;;;7.50;6.80;;;9.30;99.90;;;;;;5054927;28;20769;-68
2022/11/28 04:29:44;;;;;;;8.10;7.00;;;9.40;99.90;;;;;;5054909;28;20412;-68
2022/11/28 04:32:12;;;;;;;7.77;6.87;;;9.50;99.90;;;;;;5054654;28;20377;-69
2022/11/28 04:34:42;;;;;;;7.60;6.80;;;9.60;99.90;;;;;;5054358;28;20718;-68
2022/11/28 04:37:09;;;;;;;7.80;7.07;;;9.50;99.90;;;;;;5054538;28;20484;-69
2022/11/28 04:39:36;;;;;;;6.90;6.30;;;9.60;99.90;;;;;;5055020;28;20799;-68
2022/11/28 04:42:16;;;;;;;7.60;6.90;;;9.70;99.90;;;;;;5070518;28;20420;-68
2022/11/28 04:45:21;;;;;;;7.37;6.73;;;9.60;99.90;;;;;;5055012;28;20471;-68
2022/11/28 04:47:47;;;;;;;7.50;6.70;;;9.60;99.90;;;;;;5043528;28;20421;-68
2022/11/28 04:50:13;;;;;;;6.80;6.20;;;9.50;99.90;;;;;;5054300;28;20405;-69
2022/11/28 04:53:00;;;;;;;7.57;6.80;;;9.50;99.90;;;;;;5054605;28;20397;-68
2022/11/28 04:55:36;;;;;;;7.37;6.67;;;9.40;99.90;;;;;;5053336;28;20867;-68
2022/11/28 04:58:13;;;;;;;7.73;7.00;;;9.50;99.90;;;;;;5054525;28;20784;-69
2022/11/28 05:00:40;;;;;;;8.53;7.63;;;9.50;99.90;;;;;;5054837;28;20525;-68
2022/11/28 05:03:08;;;;;;;7.23;6.67;;;9.40;99.90;;;;;;5054083;28;20931;-69
2022/11/28 05:05:43;;;;;;;6.60;6.00;;;9.40;99.90;;;;;;5054630;28;20417;-68
2022/11/28 05:08:09;;;;;;;7.77;7.07;;;9.50;99.90;;;;;;5054104;28;20392;-69
2022/11/28 05:10:34;;;;;;;7.40;6.73;;;9.50;99.90;;;;;;5053195;28;20499;-68
2022/11/28 05:13:00;;;;;;;7.53;6.83;;;9.60;99.90;;;;;;5054407;28;20479;-68
2022/11/28 05:15:26;;;;;;;6.37;5.77;;;9.70;99.90;;;;;;5053768;28;20189;-68
2022/11/28 05:17:51;;;;;;;7.70;7.00;;;9.70;99.90;;;;;;5054675;28;20197;-68
2022/11/28 05:20:17;;;;;;;7.00;6.30;;;9.80;99.90;;;;;;5053601;28;20210;-68
2022/11/28 05:22:43;;;;;;;7.67;5.80;;;9.90;99.90;;;;;;5053970;28;20240;-68
2022/11/28 05:25:09;;;;;;;6.10;5.60;;;9.90;99.90;;;;;;5053657;28;20620;-69
2022/11/28 05:27:34;;;;;;;7.87;6.80;;;9.90;99.90;;;;;;5054134;28;20173;-68
2022/11/28 05:30:00;;;;;;;7.80;6.37;;;9.70;99.90;;;;;;5054168;28;20606;-68
2022/11/28 05:32:30;;;;;;;7.00;6.30;;;9.70;99.90;;;;;;5053411;28;20401;-68
2022/11/28 05:34:56;;;;;;;6.70;6.00;;;9.60;99.90;;;;;;5054095;28;20205;-68
2022/11/28 05:37:21;;;;;;;6.47;5.87;;;9.30;99.90;;;;;;5053333;28;20884;-68
2022/11/28 05:39:47;;;;;;;6.77;6.17;;;9.50;99.90;;;;;;5053884;28;20439;-68
2022/11/28 05:42:13;;;;;;;6.90;6.20;;;9.50;99.90;;;;;;5053292;28;20174;-69
2022/11/28 05:44:38;;;;;;;7.20;6.30;;;9.50;99.90;;;;;;5054131;28;20370;-68
2022/11/28 05:47:04;;;;;;;6.90;6.20;;;9.40;99.90;;;;;;5054051;28;20174;-68
2022/11/28 05:49:30;;;;;;;7.27;6.57;;;9.40;99.90;;;;;;5053131;28;20260;-68
2022/11/28 05:51:55;;;;;;;7.60;6.87;;;9.50;99.90;;;;;;5053401;28;20519;-68
2022/11/28 05:54:21;;;;;;;8.23;7.50;;;9.50;99.90;;;;;;5053019;28;20170;-68
2022/11/28 05:56:47;;;;;;;9.03;7.13;;;9.30;99.90;;;;;;5053539;28;20198;-68
2022/11/28 05:59:13;;;;;;;7.73;6.33;;;9.30;99.90;;;;;;5052471;28;20263;-69
2022/11/28 06:01:39;;;;;;;7.00;6.20;;;9.50;99.90;;;;;;5053595;28;20190;-68
2022/11/28 06:04:04;;;;;;;9.07;7.37;;;9.70;99.90;;;;;;5053512;28;20871;-68
2022/11/28 06:06:33;;;;;;;8.00;6.20;;;9.80;99.90;;;;;;5052099;28;20401;-68
2022/11/28 06:08:59;;;;;;;8.13;7.33;;;9.90;99.90;;;;;;5052078;28;20174;-68
2022/11/28 06:11:26;;;;;;;8.80;7.90;;;10.00;99.90;;;;;;5052751;28;20443;-68
2022/11/28 06:13:52;;;;;;;9.03;7.17;;;10.10;99.90;;;;;;5053272;28;20411;-68
2022/11/28 06:16:20;;;;;;;7.70;6.80;;;10.20;99.90;;;;;;5033875;28;20431;-69
2022/11/28 06:18:46;;;;;;;7.63;7.03;;;10.30;99.90;;;;;;5053168;28;20168;-68
2022/11/28 06:21:14;;;;;;;7.83;7.03;;;10.30;99.90;;;;;;5052247;28;20930;-68
2022/11/28 06:23:41;;;;;;;8.60;7.20;;;10.20;99.90;;;;;;5053105;28;20446;-68
2022/11/28 06:26:09;;;;;;;7.33;6.23;;;10.30;99.90;;;;;;5051888;28;20416;-68
2022/11/28 06:28:35;;;;;;;7.03;6.33;;;10.40;99.90;;;;;;5052852;28;20903;-68
2022/11/28 06:31:02;;;;;;;7.33;6.63;;;10.00;99.90;;;;;;5052604;28;20412;-68
2022/11/28 06:33:28;;;;;;;9.67;8.67;;;10.00;99.90;;;;;;5052323;28;20171;-69
2022/11/28 06:36:02;;;;;;;6.93;6.33;;;10.10;99.90;;;;;;5050703;28;20462;-68
2022/11/28 06:38:29;;;;;;;9.10;8.20;;;10.20;99.90;;;;;;5052325;28;20400;-68
2022/11/28 06:40:56;;;;;;;9.33;8.30;;;10.20;99.90;;;;;;5052614;28;20452;-68
2022/11/28 06:43:22;;;;;;;10.40;7.07;;;10.30;99.90;;;;;;5033601;28;20754;-69
2022/11/28 06:45:48;;;;;;;9.47;7.80;;;10.10;99.90;;;;;;5052715;28;20403;-69
2022/11/28 06:48:13;;;;;;;9.00;7.77;;;10.20;99.90;;;;;;5051774;28;20210;-69
2022/11/28 06:50:39;;;;;;;11.63;8.90;;;10.30;99.90;;;;;;5052741;28;20519;-68
2022/11/28 06:53:05;;;;;;;9.13;8.23;;;10.40;99.90;;;;;;5052930;28;20184;-68
2022/11/28 06:55:30;;;;;;;8.70;7.90;;;10.20;99.90;;;;;;5051696;28;20172;-68
2022/11/28 06:57:56;;;;;;;9.40;8.50;;;10.10;99.90;;;;;;5052281;28;20238;-69
2022/11/28 07:00:22;;;;;;;8.20;7.40;;;10.00;99.90;;;;;;5050887;28;20294;-69
2022/11/28 07:02:47;;;;;;;7.83;7.10;;;10.10;99.90;;;;;;5052132;28;20171;-68
2022/11/28 07:05:15;;;;;;;8.93;8.03;;;10.00;99.90;;;;;;5050379;28;20257;-70
2022/11/28 07:07:42;;;;;;;10.67;8.27;;;9.90;99.90;;;;;;5052886;28;20188;-68
2022/11/28 07:10:08;;;;;;;8.40;7.60;;;9.90;99.90;;;;;;5052454;28;20415;-68
2022/11/28 07:12:34;;;;;;;13.60;10.90;;;9.90;99.90;;;;;;5051600;28;20503;-69
2022/11/28 07:14:59;;;;;;;7.87;7.17;;;10.00;99.90;;;;;;5052384;28;20441;-68
2022/11/28 07:17:25;;;;;;;6.87;6.17;;;10.00;99.90;;;;;;5054653;28;20443;-69
2022/11/28 07:19:51;;;;;;;7.40;6.77;;;10.00;99.90;;;;;;5056399;28;20569;-69
2022/11/28 07:22:17;;;;;;;8.40;7.30;;;10.10;99.90;;;;;;5055863;28;20405;-69
2022/11/28 07:24:43;;;;;;;7.80;7.10;;;10.00;99.90;;;;;;5056586;28;20178;-68
2022/11/28 07:27:08;;;;;;;7.53;6.83;;;10.10;99.90;;;;;;5056123;28;20234;-68
2022/11/28 07:29:35;;;;;;;8.00;7.30;;;10.00;99.90;;;;;;5037587;28;20282;-69
2022/11/28 07:32:06;;;;;;;8.47;6.90;;;9.90;99.90;;;;;;5056079;28;20279;-68
2022/11/28 07:34:32;;;;;;;8.17;7.33;;;9.90;99.90;;;;;;5055644;28;20391;-68
2022/11/28 07:36:58;;;;;;;8.03;7.23;;;10.00;99.90;;;;;;5054985;28;20414;-68
2022/11/28 07:39:24;;;;;;;7.60;7.00;;;9.90;99.90;;;;;;5055441;28;20410;-68
2022/11/28 07:41:50;;;;;;;8.70;7.60;;;10.00;99.90;;;;;;5055826;28;20209;-68
2022/11/28 07:44:16;;;;;;;8.00;7.20;;;10.00;99.90;;;;;;5055471;28;20421;-69
2022/11/28 07:46:46;;;;;;;8.07;7.27;;;10.10;99.90;;;;;;5056239;28;20172;-68
2022/11/28 07:49:13;;;;;;;8.00;7.30;;;10.00;99.90;;;;;;5055909;28;20453;-68
2022/11/28 07:51:39;;;;;;;8.47;7.40;;;10.00;99.90;;;;;;5055546;28;20411;-68
2022/11/28 07:54:05;;;;;;;7.70;7.03;;;10.10;99.90;;;;;;5055861;28;20499;-68
2022/11/28 07:56:34;;;;;;;7.63;6.93;;;10.20;99.90;;;;;;5053906;28;20423;-68
2022/11/28 07:59:00;;;;;;;7.40;6.77;;;10.20;99.90;;;;;;5055703;28;20414;-68
2022/11/28 08:01:32;;;;;;;7.97;7.27;;;10.20;99.90;;;;;;5055104;28;20536;-68
2022/11/28 08:03:58;;;;;;;8.30;7.57;;;10.10;99.90;;;;;;5054697;28;20480;-68
2022/11/28 08:06:26;;;;;;;7.70;7.00;;;10.20;99.90;;;;;;5055051;28;20490;-68
2022/11/28 08:08:53;;;;;;;7.50;6.90;;;10.10;99.90;;;;;;5055643;28;20401;-68
2022/11/28 08:11:21;;;;;;;7.80;7.20;;;10.10;99.90;;;;;;5054620;28;20490;-69
2022/11/28 08:13:47;;;;;;;9.20;7.90;;;9.90;99.90;;;;;;5055467;28;20417;-68
2022/11/28 08:16:18;;;;;;;8.40;7.33;;;9.80;99.90;;;;;;5055765;28;20416;-68
2022/11/28 08:18:45;;;;;;;8.40;7.47;;;9.80;99.90;;;;;;5055448;28;20461;-68
2022/11/28 08:21:13;;;;;;;8.73;7.83;;;9.60;99.90;;;;;;5055326;28;20444;-68
2022/11/28 08:23:40;;;;;;;8.73;7.30;;;9.70;99.90;;;;;;5054710;28;20409;-69
2022/11/28 08:26:08;;;;;;;7.83;7.13;;;9.70;99.90;;;;;;5055324;28;20421;-68
2022/11/28 08:28:34;;;;;;;10.33;8.00;;;9.80;99.90;;;;;;5053912;28;20423;-69
2022/11/28 08:31:27;;;;;;;8.70;8.00;;;9.90;99.90;;;;;;5053985;28;20420;-68
2022/11/28 08:33:57;;;;;;;7.50;6.80;;;9.90;99.90;;;;;;5054668;28;20432;-68
2022/11/28 08:36:23;;;;;;;7.03;6.40;;;9.90;99.90;;;;;;5054743;28;20466;-68
2022/11/28 08:38:49;;;;;;;9.50;8.10;;;10.00;99.90;;;;;;5055189;28;20771;-68
2022/11/28 08:41:18;;;;;;;8.30;7.60;;;10.10;99.90;;;;;;5052897;28;20464;-68
2022/11/28 08:43:45;;;;;;;8.50;7.70;;;10.10;99.90;;;;;;5054950;28;20215;-68
2022/11/28 08:46:13;;;;;;;8.63;7.57;;;10.20;99.90;;;;;;5054628;28;20408;-68
2022/11/28 08:48:40;;;;;;;7.67;7.03;;;10.20;99.90;;;;;;5054245;28;20418;-68
2022/11/28 08:51:06;;;;;;;8.20;7.40;;;10.00;99.90;;;;;;5054528;28;20906;-68
2022/11/28 08:53:32;;;;;;;8.50;7.23;;;10.10;99.90;;;;;;5054132;28;20411;-68
2022/11/28 08:55:59;;;;;;;8.03;7.07;;;10.20;99.90;;;;;;5054690;28;20398;-68
2022/11/28 08:58:24;;;;;;;11.93;8.20;;;10.20;99.90;;;;;;5054150;28;20422;-69
2022/11/28 09:00:50;;;;;;;9.67;8.00;;;10.20;99.90;;;;;;5054601;28;20562;-68
2022/11/28 09:03:18;;;;;;;8.20;7.40;;;10.30;99.90;;;;;;5054599;28;20174;-68
2022/11/28 09:05:45;;;;;;;8.33;7.53;;;10.30;99.90;;;;;;5053967;28;20257;-68
2022/11/28 09:08:12;;;;;;;7.37;6.67;;;10.40;99.90;;;;;;5054467;28;20410;-68
2022/11/28 09:10:39;;;;;;;7.83;7.20;;;10.40;99.90;;;;;;5053789;28;20420;-69
2022/11/28 09:13:06;;;;;;;7.80;7.20;;;10.40;99.90;;;;;;5054315;28;20416;-68
2022/11/28 09:15:32;;;;;;;6.97;6.27;;;10.40;99.90;;;;;;5053732;28;20411;-68
2022/11/28 09:17:58;;;;;;;7.30;6.60;;;10.50;99.90;;;;;;5054213;28;20967;-68
2022/11/28 09:20:24;;;;;;;8.00;7.20;;;10.50;99.90;;;;;;5053586;28;20464;-69
2022/11/28 09:22:50;;;;;;;7.63;6.80;;;10.20;99.90;;;;;;5052923;28;20422;-69
2022/11/28 09:25:16;;;;;;;7.50;6.13;;;10.20;99.90;;;;;;5054239;28;20415;-68
2022/11/28 09:27:41;;;;;;;6.90;6.30;;;10.30;99.90;;;;;;5052219;28;20181;-68
2022/11/28 09:30:08;;;;;;;6.27;5.73;;;10.30;99.90;;;;;;5054137;28;20246;-68
2022/11/28 09:32:35;;;;;;;7.30;6.60;;;10.20;99.90;;;;;;5053687;28;20231;-68
2022/11/28 09:35:01;;;;;;;10.93;7.13;;;10.30;99.90;;;;;;5054005;28;20464;-68
2022/11/28 09:37:27;;;;;;;8.00;7.30;;;10.30;99.90;;;;;;5053379;28;20411;-68
2022/11/28 09:39:53;;;;;;;8.43;7.33;;;10.30;99.90;;;;;;5052732;28;20399;-68
2022/11/28 09:42:33;;;;;;;7.33;6.63;;;10.20;99.90;;;;;;5053811;28;20398;-69
2022/11/28 09:45:09;;;;;;;8.57;7.43;;;10.20;99.90;;;;;;5053892;28;20417;-68
2022/11/28 09:47:38;;;;;;;8.03;7.23;;;10.20;99.90;;;;;;5053053;28;20403;-69
2022/11/28 09:50:09;;;;;;;8.83;7.50;;;10.20;99.90;;;;;;5053374;28;20411;-69
2022/11/28 09:52:59;;;;;;;8.70;7.93;;;9.90;99.90;;;;;;5052710;28;20402;-68
2022/11/28 09:55:46;;;;;;;9.10;8.20;;;9.90;99.90;;;;;;5053089;28;20450;-69
2022/11/28 09:58:52;;;;;;;8.60;7.87;;;10.10;99.90;;;;;;5053494;28;20414;-68
2022/11/28 10:01:36;;;;;;;8.77;8.00;;;10.20;99.90;;;;;;5053642;28;20458;-68
2022/11/28 10:04:18;;;;;;;8.80;8.00;;;10.20;99.90;;;;;;5053445;28;20456;-68
2022/11/28 10:07:19;;;;;;;8.83;7.10;;;10.20;99.90;;;;;;5053089;28;20627;-68
2022/11/28 10:10:10;;;;;;;8.10;7.30;;;10.10;99.90;;;;;;5047616;28;20416;-68
2022/11/28 10:12:49;;;;;;;7.93;7.30;;;10.10;99.90;;;;;;5049507;28;20424;-68
2022/11/28 10:15:17;;;;;;;8.30;7.60;;;10.20;99.90;;;;;;5053334;28;20502;-68
2022/11/28 10:18:08;;;;;;;8.00;7.20;;;10.30;99.90;;;;;;5051275;28;20512;-68
2022/11/28 10:20:40;;;;;;;8.27;7.57;;;10.40;99.90;;;;;;5052406;28;20791;-68
2022/11/28 10:23:14;;;;;;;7.70;7.00;;;10.60;99.90;;;;;;5052897;28;20392;-68
2022/11/28 10:25:45;;;;;;;8.00;7.20;;;10.70;99.90;;;;;;5052532;28;20749;-69
2022/11/28 10:28:18;;;;;;;8.87;7.97;;;10.70;99.90;;;;;;5053054;28;20393;-68
2022/11/28 10:30:54;;;;;;;8.03;7.23;;;10.60;99.90;;;;;;5050868;28;20430;-68
2022/11/28 10:33:27;;;;;;;9.30;7.80;;;10.70;99.90;;;;;;5052719;28;20411;-68
2022/11/28 10:35:56;;;;;;;9.73;8.13;;;10.80;99.90;;;;;;5053005;28;20395;-68
2022/11/28 10:38:28;;;;;;;8.77;7.87;;;10.90;99.90;;;;;;5053061;28;20513;-69
2022/11/28 10:41:10;;;;;;;9.33;8.43;;;11.00;99.90;;;;;;5052715;28;20505;-68
2022/11/28 10:43:38;;;;;;;8.70;7.80;;;11.10;99.90;;;;;;5052125;28;20407;-69
2022/11/28 10:46:26;;;;;;;8.27;7.57;;;11.10;99.90;;;;;;5052548;28;20765;-68
2022/11/28 10:49:22;;;;;;;7.77;7.07;;;11.20;99.90;;;;;;5052816;28;20466;-69
2022/11/28 10:52:24;;;;;;;8.60;7.80;;;11.20;99.90;;;;;;5051823;28;20419;-68
2022/11/28 10:54:58;;;;;;;7.73;6.93;;;11.20;99.90;;;;;;5041714;28;20477;-68
2022/11/28 10:57:28;;;;;;;8.97;7.83;;;11.20;99.90;;;;;;5052295;28;20405;-68
2022/11/28 11:00:16;;;;;;;8.70;7.47;;;11.10;99.90;;;;;;5051555;28;20961;-68
2022/11/28 11:02:47;;;;;;;11.03;7.77;;;11.00;99.90;;;;;;5051403;28;20459;-69
2022/11/28 11:05:17;;;;;;;8.63;7.73;;;11.00;99.90;;;;;;5052631;28;20429;-68
2022/11/28 11:07:48;;;;;;;8.50;7.63;;;11.00;99.90;;;;;;5051805;28;20466;-68
2022/11/28 11:10:22;;;;;;;7.77;7.07;;;11.00;99.90;;;;;;5067827;28;20814;-68
2022/11/28 11:12:51;;;;;;;8.50;7.80;;;10.90;99.90;;;;;;5051275;28;20494;-68
2022/11/28 11:15:29;;;;;;;9.07;8.07;;;11.00;99.90;;;;;;5051983;28;20413;-68
2022/11/28 11:17:56;;;;;;;8.20;7.40;;;11.00;99.90;;;;;;5052208;28;20399;-68
2022/11/28 11:20:22;;;;;;;9.73;8.63;;;10.70;99.90;;;;;;5052302;28;20840;-68
2022/11/28 11:22:56;;;;;;;8.33;7.50;;;10.80;99.90;;;;;;5051737;28;20864;-68
2022/11/28 11:25:24;;;;;;;8.10;7.40;;;10.70;99.90;;;;;;5052246;28;20243;-68
2022/11/28 11:27:53;;;;;;;8.20;7.40;;;10.60;99.90;;;;;;5051900;28;20521;-68
2022/11/28 11:30:37;;;;;;;8.53;7.63;;;10.70;99.90;;;;;;5052506;28;20419;-68
2022/11/28 11:33:04;;;;;;;8.30;7.43;;;10.80;99.90;;;;;;5052465;28;20893;-68
2022/11/28 11:35:34;;;;;;;8.70;7.83;;;10.90;99.90;;;;;;5051618;28;20468;-69
2022/11/28 11:38:22;;;;;;;7.90;7.10;;;10.90;99.90;;;;;;5052270;28;20416;-68
2022/11/28 11:40:49;;;;;;;9.27;7.67;;;11.00;99.90;;;;;;5051503;28;20537;-68
2022/11/28 11:43:30;;;;;;;8.30;7.23;;;10.80;99.90;;;;;;5052161;28;20417;-68
2022/11/28 11:46:13;;;;;;;8.20;7.13;;;10.90;99.90;;;;;;5052264;28;20393;-68
2022/11/28 11:48:40;;;;;;;8.60;7.83;;;10.80;99.90;;;;;;5051241;28;20456;-68
2022/11/28 11:51:22;;;;;;;8.37;7.53;;;10.60;99.90;;;;;;5051839;28;20417;-68
2022/11/28 11:53:58;;;;;;;8.20;7.40;;;10.80;99.90;;;;;;5051425;28;20386;-69
2022/11/28 11:56:24;;;;;;;9.03;8.13;;;10.90;99.90;;;;;;5052151;28;20457;-68
2022/11/28 11:58:53;;;;;;;8.93;7.77;;;10.50;99.90;;;;;;5051108;28;20488;-69
2022/11/28 12:01:20;;;;;;;11.33;8.40;;;10.50;99.90;;;;;;5050671;28;20506;-68
2022/11/28 12:03:57;;;;;;;9.90;8.30;;;10.70;99.90;;;;;;5052952;28;20426;-69
2022/11/28 12:06:33;;;;;;;9.70;7.77;;;10.80;99.90;;;;;;5055784;28;20398;-68
2022/11/28 12:09:06;;;;;;;9.10;8.30;;;10.90;99.90;;;;;;5055616;28;20401;-68
2022/11/28 12:11:39;;;;;;;9.60;8.70;;;10.90;99.90;;;;;;5055041;28;20407;-69
2022/11/28 12:14:25;;;;;;;8.90;7.90;;;10.90;99.90;;;;;;5055656;28;20431;-68
2022/11/28 12:17:11;;;;;;;9.33;8.37;;;10.90;99.90;;;;;;5054844;28;20425;-69
2022/11/28 12:20:01;;;;;;;8.47;7.67;;;10.90;99.90;;;;;;5055236;28;20454;-69
2022/11/28 12:23:12;;;;;;;8.27;7.50;;;10.90;99.90;;;;;;5055444;28;20750;-68
2022/11/28 12:25:49;;;;;;;9.20;8.40;;;11.00;99.90;;;;;;5053509;28;20456;-69
2022/11/28 12:28:48;;;;;;;8.73;7.93;;;11.10;99.90;;;;;;5055370;28;20399;-69
2022/11/28 12:31:40;;;;;;;8.90;8.00;;;11.10;99.90;;;;;;5055273;28;20408;-68
2022/11/28 12:34:38;;;;;;;9.20;8.30;;;11.10;99.90;;;;;;5055590;28;20554;-68
2022/11/28 12:37:28;;;;;;;8.20;7.47;;;11.10;99.90;;;;;;5035938;28;20427;-68
2022/11/28 12:40:13;;;;;;;7.83;7.17;;;10.90;99.90;;;;;;5035690;28;20420;-68
2022/11/28 12:42:54;;;;;;;8.00;7.30;;;10.90;99.90;;;;;;5054402;28;20500;-68
2022/11/28 12:45:44;;;;;;;10.23;7.83;;;10.90;99.90;;;;;;5054755;28;20474;-68
2022/11/28 12:48:38;;;;;;;8.80;7.90;;;10.90;99.90;;;;;;5054648;28;20886;-68
2022/11/28 12:51:25;;;;;;;8.60;7.87;;;11.00;99.90;;;;;;5055047;28;20487;-68
2022/11/28 12:54:20;;;;;;;9.03;8.00;;;10.90;99.90;;;;;;5054561;28;20392;-69
2022/11/28 12:56:56;;;;;;;11.20;8.03;;;11.00;99.90;;;;;;5050850;28;20837;-68
2022/11/28 12:59:55;;;;;;;8.20;7.07;;;11.00;99.90;;;;;;5054291;28;20457;-68
2022/11/28 13:02:28;;;;;;;7.60;6.90;;;11.00;99.90;;;;;;5054503;28;20439;-68
2022/11/28 13:05:16;;;;;;;7.43;6.83;;;10.90;99.90;;;;;;5054073;28;20667;-69
2022/11/28 13:07:58;;;;;;;7.77;6.90;;;10.90;99.90;;;;;;5052638;28;20427;-69
2022/11/28 13:10:26;;;;;;;8.83;7.77;;;10.90;99.90;;;;;;5054672;28;20403;-69
2022/11/28 13:13:23;;;;;;;8.50;7.60;;;10.70;99.90;;;;;;5052117;28;20413;-69
2022/11/28 13:15:55;;;;;;;7.97;7.03;;;10.70;99.90;;;;;;5053562;28;20392;-69
2022/11/28 13:18:28;;;;;;;7.47;6.53;;;10.80;99.90;;;;;;5054332;28;20392;-68
2022/11/28 13:21:01;;;;;;;9.07;7.90;;;10.80;99.90;;;;;;5053580;28;20436;-68